ROMMA est une association bénévole à but non lucratif. Votre soutien est indispensable : ADHERER à ROMMA ou FAIRE un DON

Die - (26, Drôme)

Diois (400 m)   Longitude: 5° 21' 55"E   Latitude: 44° 45' 16"N Station partenaire n°159
 

Détail journalier du     <<     >>

Température Precipitation Humidité Pression Vent Dir Rafale Dir. rafale Ensol.
Heure (°C) (mm) (%) (hPa) (km/h) (km/h) (min)
01:00 12.3096101605O0
02:00 12.3096101603O0
03:00 12.60.69610161ENE5NNO0
04:00 12.60.29610161SSO6SO0
05:00 12.409610161ONO3ONO0
06:00 12.3096101602ONO0
07:00 11.70961016000
08:00 11.9097101605OSO0
09:00 13.6097101705SE30
10:00 14.509110172OSO5OSO30
11:00 16.508510173N10NO60
12:00 17.808110176NO16ONO60
13:00 19.207710165ONO11NO60
14:00 20.307010155ONO13NO60
15:00 20.907010155OSO15NO60
16:00 19.307410156NO15ONO30
17:00 18.607810166NO15N30
18:00 17.308110165NO11ONO0
19:00 16.508510176N13ONO0
20:00 13.709010182SSE6NE0
21:00 12.0092101803SSE0
22:00 10.909510181SSE5SSE0
23:00 11.4096101903SSE0
minuit 11.8095101903SSE0

Graphique du 29-10-2019

 

Serveur OMMA